Terminal Aerodrome Forecast
Issued by NWS

Home | Current Version | Previous Version | Graphics & Text | Print | Product List | Glossary On
Versions: 1 2 3 4 5 6 7 8 9 10 11 12 13 14 15 16 17 18 19 20 21 22 23 24 25
686
FTUS43 KMPX 212335
TAFRNH
TAF
KRNH 212335Z 2200/2224 36004KT P6SM SCT250
     FM220900 07003KT P6SM SCT250
     FM221800 31003KT P6SM SCT250=

USA.gov is the U.S. government's official web portal to all federal, state and local government web resources and services.